Saint Regis, Montana
Current Conditions -  °F | °C
As of 12:04 AM on Thursday 23 Oct 2014 (Local Time) from KMLP Reporting Station
Light Rain Light Rain  
Wind Chill: 34°   Ceiling: 2800
Heat Index: 40°   Visibility: 6mi
Dew Point: 35°   Wind: 9mph
Humidity: 83%   Direction: 200°SSW
Pressure: 29.89"   Gusts: 18mph
Location:  47.3°N, 115.1°W
Report Text: KMLP 230604Z AUTO 20008G16KT 170V240 6SM -RA OVC028 04/02 A2989 RMK AO2 P0001 T00440017
Loading
Personal Weather Stations






























Interactive Weather Map New forecast layout! Learn more

10-Day Weather Forecast

Advertisements
Track Severe Weather on mobile